New Lyme, Ohio
Current Conditions -  °F | °C
As of 11:53 PM on Friday 28 Nov 2014 (Local Time) from KHZY Reporting Station
Overcast Overcast  
Wind Chill: 16°   Ceiling: 6000
Heat Index: 25°   Visibility: 10mi
Dew Point: 21°   Wind: 8mph
Humidity: 85%   Direction: 160°SSE
Pressure: 30.16"   Gusts: NA
Location:  41.6051°N, 80.867°W
Report Text: KHZY 290453Z AUTO 16007KT 10SM OVC060 M04/M06 A3016 RMK AO2 SNE41 SLP226 P0000 T10391061 410221050
Loading
Personal Weather Stations






























Interactive Weather Map New forecast layout! Learn more

10-Day Weather Forecast

Advertisements
Track Severe Weather on mobile